Time;durP1;ratioP1;P1;durP2;ratioP2;P2;SDS_P1;SDS_P2;PMS_P1;PMS_P2;Temp;Humidity;BMP_temperature;BMP_pressure;BME280_temperature;BME280_humidity;BME280_pressure;Samples;Min_cycle;Max_cycle;Signal;HPM_P1;HPM_P2
2022/03/07 00:00:16;;;;;;;26.45;14.30;;;;;;;;;;5115076;27;20026;-75
2022/03/07 00:02:42;;;;;;;25.05;14.23;;;;;;;;;;5135002;27;20534;-76
2022/03/07 00:05:09;;;;;;;27.45;12.82;;;;;;;;;;5150653;27;20127;-75
2022/03/07 00:07:35;;;;;;;19.63;11.48;;;;;;;;;;5119073;27;20499;-75
2022/03/07 00:10:01;;;;;;;27.58;11.98;;;;;;;;;;5132818;27;20045;-76
2022/03/07 00:12:28;;;;;;;27.63;16.40;;;;;;;;;;5137854;27;20042;-76
2022/03/07 00:14:54;;;;;;;34.45;18.48;;;;;;;;;;5129583;27;20023;-76
2022/03/07 00:17:20;;;;;;;28.60;14.45;;;;;;;;;;5132812;27;20066;-76
2022/03/07 00:19:46;;;;;;;27.65;14.65;;;;;;;;;;5126156;27;20027;-76
2022/03/07 00:22:13;;;;;;;27.60;13.48;;;;;;;;;;5125203;27;20027;-76
2022/03/07 00:24:39;;;;;;;29.83;15.65;;;;;;;;;;5134794;27;20031;-76
2022/03/07 00:27:05;;;;;;;24.30;14.98;;;;;;;;;;5134496;27;20385;-76
2022/03/07 00:29:32;;;;;;;34.15;17.75;;;;;;;;;;5145919;27;20023;-76
2022/03/07 00:31:58;;;;;;;29.08;16.15;;;;;;;;;;5141905;27;20031;-76
2022/03/07 00:34:25;;;;;;;23.70;16.05;;;;;;;;;;5149526;27;20062;-76
2022/03/07 00:36:51;;;;;;;30.40;13.90;;;;;;;;;;5139191;27;20018;-76
2022/03/07 00:39:17;;;;;;;30.33;15.80;;;;;;;;;;5135548;27;20107;-76
2022/03/07 00:41:44;;;;;;;29.48;15.93;;;;;;;;;;5134584;27;20026;-76
2022/03/07 00:44:10;;;;;;;29.27;17.40;;;;;;;;;;5132754;27;20023;-76
2022/03/07 00:46:36;;;;;;;31.55;18.48;;;;;;;;;;5113983;28;20110;-76
2022/03/07 00:49:03;;;;;;;32.80;17.95;;;;;;;;;;5131964;27;20469;-76
2022/03/07 00:51:29;;;;;;;40.03;21.48;;;;;;;;;;5132998;27;20031;-76
2022/03/07 00:53:56;;;;;;;31.52;21.10;;;;;;;;;;5129768;27;20172;-76
2022/03/07 00:56:22;;;;;;;33.17;21.10;;;;;;;;;;5133443;27;20019;-77
2022/03/07 00:58:48;;;;;;;23.98;18.88;;;;;;;;;;5125810;28;20057;-77
2022/03/07 01:01:14;;;;;;;23.92;15.82;;;;;;;;;;5130912;27;20081;-76
2022/03/07 01:03:41;;;;;;;23.15;14.70;;;;;;;;;;5124627;27;20051;-76
2022/03/07 01:06:07;;;;;;;19.00;11.25;;;;;;;;;;5124979;27;20458;-76
2022/03/07 01:08:33;;;;;;;19.40;11.85;;;;;;;;;;5130226;27;20105;-76
2022/03/07 01:10:59;;;;;;;23.05;11.30;;;;;;;;;;5126320;27;20030;-75
2022/03/07 01:13:26;;;;;;;18.05;11.35;;;;;;;;;;5128439;27;20447;-74
2022/03/07 01:15:52;;;;;;;21.45;11.25;;;;;;;;;;5108938;27;20023;-75
2022/03/07 01:18:18;;;;;;;19.88;11.43;;;;;;;;;;5128876;27;20023;-75
2022/03/07 01:20:45;;;;;;;15.88;8.75;;;;;;;;;;5119675;27;20019;-76
2022/03/07 01:23:11;;;;;;;15.50;10.40;;;;;;;;;;5114487;27;20106;-75
2022/03/07 01:25:37;;;;;;;16.90;9.95;;;;;;;;;;5117255;27;20015;-76
2022/03/07 01:28:04;;;;;;;17.45;9.70;;;;;;;;;;5118974;28;20037;-76
2022/03/07 01:30:30;;;;;;;16.77;10.45;;;;;;;;;;5125254;28;20019;-75
2022/03/07 01:32:57;;;;;;;16.55;10.95;;;;;;;;;;5128395;27;20041;-76
2022/03/07 01:35:24;;;;;;;18.65;10.20;;;;;;;;;;5122727;27;20051;-76
2022/03/07 01:37:50;;;;;;;16.02;10.48;;;;;;;;;;5126613;27;20020;-75
2022/03/07 01:40:17;;;;;;;17.13;10.80;;;;;;;;;;5135980;27;20024;-76
2022/03/07 01:42:43;;;;;;;19.38;10.88;;;;;;;;;;5130836;27;20012;-76
2022/03/07 01:45:14;;;;;;;18.38;11.52;;;;;;;;;;5139698;27;20065;-76
2022/03/07 01:47:40;;;;;;;23.23;11.80;;;;;;;;;;5127687;27;20102;-76
2022/03/07 01:50:08;;;;;;;19.40;10.80;;;;;;;;;;5133517;27;20027;-76
2022/03/07 01:52:37;;;;;;;17.58;9.45;;;;;;;;;;5131014;27;20030;-75
2022/03/07 01:55:04;;;;;;;15.07;8.32;;;;;;;;;;5132986;27;20244;-75
2022/03/07 01:57:30;;;;;;;14.52;8.27;;;;;;;;;;5131116;27;20022;-75
2022/03/07 01:59:58;;;;;;;19.10;8.80;;;;;;;;;;5131453;27;20016;-77
2022/03/07 02:02:24;;;;;;;15.77;8.13;;;;;;;;;;5134901;27;20050;-75
2022/03/07 02:04:51;;;;;;;14.82;7.75;;;;;;;;;;5129927;27;20069;-75
2022/03/07 02:07:18;;;;;;;12.07;7.32;;;;;;;;;;5124859;27;20022;-76
2022/03/07 02:09:44;;;;;;;14.15;8.05;;;;;;;;;;5120488;27;20028;-77
2022/03/07 02:12:11;;;;;;;17.90;9.48;;;;;;;;;;5120246;27;20030;-75
2022/03/07 02:14:37;;;;;;;18.48;9.30;;;;;;;;;;5120301;27;20023;-75
2022/03/07 02:17:03;;;;;;;22.83;12.30;;;;;;;;;;5122869;27;20365;-76
2022/03/07 02:19:29;;;;;;;18.75;10.05;;;;;;;;;;5119628;27;20019;-76
2022/03/07 02:22:01;;;;;;;19.35;11.18;;;;;;;;;;5125719;27;20545;-77
2022/03/07 02:24:28;;;;;;;20.48;14.10;;;;;;;;;;5130996;27;20062;-76
2022/03/07 02:27:02;;;;;;;22.80;14.50;;;;;;;;;;5119850;27;20024;-77
2022/03/07 02:29:29;;;;;;;16.95;11.07;;;;;;;;;;5129788;27;20046;-77
2022/03/07 02:31:55;;;;;;;14.65;10.60;;;;;;;;;;5130768;27;20028;-76
2022/03/07 02:34:21;;;;;;;16.50;11.05;;;;;;;;;;5123919;27;20160;-76
2022/03/07 02:36:48;;;;;;;18.58;12.40;;;;;;;;;;5113778;27;20023;-76
2022/03/07 02:39:14;;;;;;;16.95;11.45;;;;;;;;;;5117270;27;20023;-76
2022/03/07 02:41:41;;;;;;;14.93;9.52;;;;;;;;;;5122091;27;20055;-75
2022/03/07 02:44:08;;;;;;;18.08;9.52;;;;;;;;;;5119208;27;20027;-76
2022/03/07 02:46:34;;;;;;;18.10;10.73;;;;;;;;;;5115319;27;20027;-76
2022/03/07 02:49:01;;;;;;;16.08;11.00;;;;;;;;;;5117648;27;20110;-76
2022/03/07 02:51:27;;;;;;;17.73;12.20;;;;;;;;;;5122928;27;20031;-76
2022/03/07 02:53:53;;;;;;;18.75;12.88;;;;;;;;;;5123118;27;20035;-76
2022/03/07 02:56:20;;;;;;;16.90;11.63;;;;;;;;;;5119786;27;20026;-76
2022/03/07 02:58:46;;;;;;;18.83;11.85;;;;;;;;;;5120598;27;20020;-76
2022/03/07 03:01:12;;;;;;;18.00;12.32;;;;;;;;;;5116342;27;20024;-76
2022/03/07 03:03:38;;;;;;;17.00;11.32;;;;;;;;;;5113557;27;20096;-76
2022/03/07 03:06:05;;;;;;;20.42;11.90;;;;;;;;;;5122515;27;20027;-76
2022/03/07 03:08:31;;;;;;;17.95;11.57;;;;;;;;;;5120374;27;20042;-76
2022/03/07 03:10:58;;;;;;;18.73;11.25;;;;;;;;;;5113813;27;20041;-76
2022/03/07 03:13:24;;;;;;;21.50;12.48;;;;;;;;;;5111117;27;20039;-75
2022/03/07 03:15:52;;;;;;;18.67;12.32;;;;;;;;;;5093301;27;20034;-77
2022/03/07 03:18:18;;;;;;;20.90;11.82;;;;;;;;;;5120335;27;20015;-76
2022/03/07 03:20:46;;;;;;;19.23;11.30;;;;;;;;;;5125593;27;20019;-76
2022/03/07 03:23:15;;;;;;;20.40;13.38;;;;;;;;;;5118266;27;20019;-75
2022/03/07 03:25:41;;;;;;;24.70;15.73;;;;;;;;;;5122486;27;20035;-76
2022/03/07 03:28:11;;;;;;;25.90;17.60;;;;;;;;;;5099786;27;20019;-77
2022/03/07 03:30:37;;;;;;;29.25;18.63;;;;;;;;;;5100042;27;20157;-76
2022/03/07 03:33:03;;;;;;;33.42;19.08;;;;;;;;;;5115797;27;20035;-75
2022/03/07 03:35:30;;;;;;;26.60;17.67;;;;;;;;;;5118715;27;20148;-75
2022/03/07 03:37:56;;;;;;;22.73;16.20;;;;;;;;;;5118270;27;20066;-76
2022/03/07 03:40:22;;;;;;;26.33;17.10;;;;;;;;;;5120572;27;20098;-76
2022/03/07 03:42:49;;;;;;;24.33;16.70;;;;;;;;;;5119758;27;20114;-76
2022/03/07 03:45:15;;;;;;;19.83;13.13;;;;;;;;;;5103873;27;20027;-77
2022/03/07 03:47:42;;;;;;;17.77;13.55;;;;;;;;;;5104742;27;20418;-76
2022/03/07 03:50:12;;;;;;;16.25;10.70;;;;;;;;;;5120493;27;20100;-78
2022/03/07 03:52:39;;;;;;;17.38;11.70;;;;;;;;;;5105808;27;20473;-77
2022/03/07 03:55:06;;;;;;;18.50;13.68;;;;;;;;;;5103911;27;20122;-78
2022/03/07 03:57:35;;;;;;;14.30;9.57;;;;;;;;;;5126040;27;20476;-76
2022/03/07 04:00:01;;;;;;;12.07;8.88;;;;;;;;;;5122954;27;20472;-75
2022/03/07 04:02:28;;;;;;;15.15;10.02;;;;;;;;;;5123926;27;20047;-76
2022/03/07 04:04:54;;;;;;;12.48;10.38;;;;;;;;;;5103566;27;20079;-76
2022/03/07 04:07:20;;;;;;;17.83;13.15;;;;;;;;;;5098290;28;20042;-76
2022/03/07 04:09:47;;;;;;;16.98;12.77;;;;;;;;;;5101916;27;20111;-77
2022/03/07 04:12:13;;;;;;;14.85;9.88;;;;;;;;;;5099601;28;20028;-77
2022/03/07 04:14:39;;;;;;;18.63;12.18;;;;;;;;;;5098303;27;20052;-76
2022/03/07 04:17:05;;;;;;;18.92;13.18;;;;;;;;;;5097880;27;20028;-77
2022/03/07 04:19:32;;;;;;;19.50;12.75;;;;;;;;;;5101004;27;20120;-77
2022/03/07 04:21:58;;;;;;;21.90;13.23;;;;;;;;;;5102645;27;20373;-76
2022/03/07 04:24:24;;;;;;;17.80;11.88;;;;;;;;;;5095878;27;20027;-76
2022/03/07 04:26:51;;;;;;;19.92;11.10;;;;;;;;;;5102009;27;20046;-77
2022/03/07 04:29:17;;;;;;;14.48;9.40;;;;;;;;;;5095237;28;20410;-77
2022/03/07 04:31:45;;;;;;;11.82;9.00;;;;;;;;;;5096852;27;20046;-77
2022/03/07 04:34:14;;;;;;;15.57;9.20;;;;;;;;;;5091843;27;20027;-76
2022/03/07 04:36:41;;;;;;;14.30;9.55;;;;;;;;;;5100238;28;20046;-77
2022/03/07 04:39:08;;;;;;;14.25;10.00;;;;;;;;;;5106940;27;20469;-77
2022/03/07 04:41:35;;;;;;;17.50;10.48;;;;;;;;;;5098161;27;20042;-76
2022/03/07 04:44:01;;;;;;;20.60;12.57;;;;;;;;;;5099174;28;20550;-77
2022/03/07 04:46:28;;;;;;;20.73;13.02;;;;;;;;;;5100308;28;20043;-77
2022/03/07 04:48:55;;;;;;;23.20;15.30;;;;;;;;;;5096755;28;20367;-77
2022/03/07 04:51:21;;;;;;;28.83;18.55;;;;;;;;;;5091987;27;20019;-76
2022/03/07 04:53:47;;;;;;;34.42;22.98;;;;;;;;;;5095140;28;20370;-77
2022/03/07 04:56:13;;;;;;;33.10;22.02;;;;;;;;;;5107400;28;20111;-77
2022/03/07 04:58:40;;;;;;;36.50;24.70;;;;;;;;;;5100025;28;20039;-79
2022/03/07 05:01:06;;;;;;;45.30;28.08;;;;;;;;;;5097110;28;20032;-77
2022/03/07 05:03:33;;;;;;;34.08;22.73;;;;;;;;;;5099124;28;20397;-76
2022/03/07 05:05:59;;;;;;;28.40;17.45;;;;;;;;;;5104470;28;20016;-78
2022/03/07 05:08:25;;;;;;;27.35;17.92;;;;;;;;;;5102501;28;20238;-78
2022/03/07 05:10:52;;;;;;;24.23;15.88;;;;;;;;;;5102312;28;20093;-77
2022/03/07 05:13:18;;;;;;;24.27;14.95;;;;;;;;;;5104049;28;20092;-77
2022/03/07 05:15:44;;;;;;;20.17;13.00;;;;;;;;;;5104063;28;20377;-78
2022/03/07 05:18:10;;;;;;;17.75;11.43;;;;;;;;;;5111375;28;20063;-78
2022/03/07 05:20:37;;;;;;;17.77;11.95;;;;;;;;;;5104939;28;20122;-79
2022/03/07 05:23:04;;;;;;;14.52;9.43;;;;;;;;;;5108485;28;20023;-78
2022/03/07 05:25:30;;;;;;;12.45;8.52;;;;;;;;;;5092236;28;20031;-78
2022/03/07 05:27:56;;;;;;;11.95;5.75;;;;;;;;;;5110030;27;20411;-78
2022/03/07 05:30:23;;;;;;;12.40;7.38;;;;;;;;;;5109500;27;20031;-76
2022/03/07 05:32:53;;;;;;;11.30;7.30;;;;;;;;;;5105495;28;20127;-78
2022/03/07 05:35:21;;;;;;;11.50;7.93;;;;;;;;;;5107665;28;21449;-77
2022/03/07 05:37:47;;;;;;;32.22;20.13;;;;;;;;;;5110966;28;20027;-77
2022/03/07 05:40:14;;;;;;;34.10;20.33;;;;;;;;;;5107730;27;20042;-78
2022/03/07 05:42:44;;;;;;;28.67;17.50;;;;;;;;;;5109919;27;20043;-77
2022/03/07 05:45:14;;;;;;;24.17;15.57;;;;;;;;;;5109845;28;20031;-78
2022/03/07 05:47:41;;;;;;;25.20;15.52;;;;;;;;;;5085684;28;20541;-79
2022/03/07 05:50:08;;;;;;;34.03;20.70;;;;;;;;;;5106468;27;20101;-78
2022/03/07 05:52:35;;;;;;;36.97;22.75;;;;;;;;;;5086030;28;20035;-77
2022/03/07 05:55:02;;;;;;;38.67;26.10;;;;;;;;;;5109681;28;20065;-79
2022/03/07 05:57:28;;;;;;;29.10;18.50;;;;;;;;;;5101500;27;20031;-78
2022/03/07 05:59:55;;;;;;;33.58;18.85;;;;;;;;;;5100937;28;20036;-80
2022/03/07 06:02:21;;;;;;;32.80;18.50;;;;;;;;;;5084004;28;20507;-79
2022/03/07 06:04:47;;;;;;;30.95;18.50;;;;;;;;;;5117787;27;20113;-78
2022/03/07 06:07:14;;;;;;;30.15;17.83;;;;;;;;;;5123870;27;20506;-77
2022/03/07 06:09:43;;;;;;;31.02;21.30;;;;;;;;;;5120899;27;20038;-79
2022/03/07 06:12:09;;;;;;;31.05;22.55;;;;;;;;;;5122277;27;20067;-78
2022/03/07 06:14:36;;;;;;;25.08;19.50;;;;;;;;;;5124500;27;20122;-78
2022/03/07 06:17:02;;;;;;;26.88;18.20;;;;;;;;;;5123081;27;20027;-78
2022/03/07 06:19:28;;;;;;;23.55;18.30;;;;;;;;;;5119597;27;20349;-78
2022/03/07 06:21:55;;;;;;;27.52;19.85;;;;;;;;;;5122714;27;20031;-77
2022/03/07 06:24:21;;;;;;;20.27;16.70;;;;;;;;;;5111256;27;20063;-77
2022/03/07 06:26:47;;;;;;;18.35;14.25;;;;;;;;;;5128763;27;20027;-76
2022/03/07 06:29:14;;;;;;;18.95;14.85;;;;;;;;;;5118943;27;20082;-78
2022/03/07 06:31:40;;;;;;;21.80;16.17;;;;;;;;;;5117254;27;20035;-77
2022/03/07 06:34:06;;;;;;;19.58;15.32;;;;;;;;;;5121432;27;20157;-76
2022/03/07 06:36:33;;;;;;;19.50;15.40;;;;;;;;;;5108638;27;20034;-78
2022/03/07 06:39:00;;;;;;;16.98;12.82;;;;;;;;;;5113799;27;20031;-77
2022/03/07 06:41:26;;;;;;;16.55;12.05;;;;;;;;;;5120414;27;20598;-79
2022/03/07 06:43:52;;;;;;;15.10;12.75;;;;;;;;;;5120650;27;20079;-78
2022/03/07 06:46:19;;;;;;;15.43;11.32;;;;;;;;;;5107271;27;20059;-76
2022/03/07 06:48:45;;;;;;;13.57;11.57;;;;;;;;;;5104850;27;20043;-79
2022/03/07 06:51:11;;;;;;;15.35;11.68;;;;;;;;;;5124514;27;20045;-77
2022/03/07 06:53:38;;;;;;;15.80;10.23;;;;;;;;;;5123810;27;20037;-80
2022/03/07 06:56:08;;;;;;;13.82;9.90;;;;;;;;;;5103342;27;20020;-79
2022/03/07 06:58:34;;;;;;;11.02;8.05;;;;;;;;;;5122248;27;20475;-77
2022/03/07 07:01:00;;;;;;;11.02;8.48;;;;;;;;;;5115743;27;20027;-77
2022/03/07 07:03:27;;;;;;;9.07;6.78;;;;;;;;;;5121001;27;20046;-78
2022/03/07 07:05:53;;;;;;;11.35;9.15;;;;;;;;;;5115357;27;20680;-78
2022/03/07 07:08:19;;;;;;;10.40;8.50;;;;;;;;;;5122074;27;20416;-79
2022/03/07 07:10:46;;;;;;;12.02;7.38;;;;;;;;;;5119182;27;20075;-77
2022/03/07 07:13:14;;;;;;;11.23;8.13;;;;;;;;;;5118953;27;20112;-79
2022/03/07 07:15:43;;;;;;;10.55;8.20;;;;;;;;;;5119742;27;20462;-80
2022/03/07 07:18:10;;;;;;;13.00;8.65;;;;;;;;;;5114742;27;20535;-79
2022/03/07 07:20:36;;;;;;;11.27;8.18;;;;;;;;;;5112500;27;20061;-79
2022/03/07 07:23:03;;;;;;;8.98;5.38;;;;;;;;;;5119458;27;20384;-79
2022/03/07 07:25:29;;;;;;;10.13;6.32;;;;;;;;;;5096763;27;20041;-75
2022/03/07 07:27:55;;;;;;;10.13;6.13;;;;;;;;;;5116245;27;20037;-77
2022/03/07 07:30:22;;;;;;;9.52;6.22;;;;;;;;;;5113899;27;20027;-80
2022/03/07 07:32:48;;;;;;;9.80;6.50;;;;;;;;;;5102335;27;20382;-80
2022/03/07 07:35:15;;;;;;;7.30;5.50;;;;;;;;;;5101966;27;20035;-74
2022/03/07 07:37:41;;;;;;;9.65;4.70;;;;;;;;;;5117032;27;20026;-80
2022/03/07 07:40:08;;;;;;;10.80;6.00;;;;;;;;;;5119893;27;20102;-77
2022/03/07 07:42:34;;;;;;;7.38;4.35;;;;;;;;;;5116008;27;20110;-77
2022/03/07 07:45:00;;;;;;;7.95;5.35;;;;;;;;;;5119755;27;20475;-77
2022/03/07 07:47:27;;;;;;;8.75;5.40;;;;;;;;;;5118976;27;20054;-77
2022/03/07 07:49:53;;;;;;;11.50;4.63;;;;;;;;;;5120634;27;20024;-77
2022/03/07 07:52:19;;;;;;;6.50;4.50;;;;;;;;;;5120274;27;20019;-76
2022/03/07 07:54:45;;;;;;;7.57;5.18;;;;;;;;;;5120511;27;20031;-76
2022/03/07 07:57:19;;;;;;;7.63;5.15;;;;;;;;;;5119930;27;20100;-77
2022/03/07 07:59:46;;;;;;;8.32;4.70;;;;;;;;;;5116906;27;20020;-77
2022/03/07 08:02:12;;;;;;;9.15;4.30;;;;;;;;;;5124368;27;20503;-77
2022/03/07 08:04:39;;;;;;;7.85;4.63;;;;;;;;;;5124266;27;20051;-78
2022/03/07 08:07:05;;;;;;;9.18;3.65;;;;;;;;;;5122334;27;20476;-76
2022/03/07 08:09:31;;;;;;;8.52;5.68;;;;;;;;;;5115387;27;20544;-77
2022/03/07 08:12:01;;;;;;;5.68;4.40;;;;;;;;;;5120620;27;20144;-77
2022/03/07 08:14:28;;;;;;;9.73;5.32;;;;;;;;;;5112909;27;20035;-78
2022/03/07 08:16:54;;;;;;;8.57;5.82;;;;;;;;;;5127795;27;20054;-78
2022/03/07 08:19:20;;;;;;;6.88;4.82;;;;;;;;;;5121848;27;20114;-77
2022/03/07 08:21:46;;;;;;;14.15;5.15;;;;;;;;;;5122334;27;20068;-77
2022/03/07 08:24:13;;;;;;;8.15;5.63;;;;;;;;;;5123231;27;20038;-77
2022/03/07 08:26:40;;;;;;;10.02;5.85;;;;;;;;;;5125140;27;20064;-78
2022/03/07 08:29:07;;;;;;;7.20;4.15;;;;;;;;;;5123180;27;20540;-79
2022/03/07 08:31:33;;;;;;;5.90;4.15;;;;;;;;;;5126061;27;20031;-76
2022/03/07 08:33:59;;;;;;;7.97;4.50;;;;;;;;;;5124887;27;20027;-78
2022/03/07 08:36:26;;;;;;;6.90;4.43;;;;;;;;;;5116848;27;20504;-78
2022/03/07 08:38:53;;;;;;;6.57;4.55;;;;;;;;;;5109498;27;20469;-77
2022/03/07 08:41:19;;;;;;;7.45;5.07;;;;;;;;;;5116105;27;20241;-78
2022/03/07 08:43:48;;;;;;;8.30;5.55;;;;;;;;;;5121138;27;20023;-77
2022/03/07 08:46:15;;;;;;;9.52;4.78;;;;;;;;;;5122374;27;20031;-76
2022/03/07 08:48:41;;;;;;;8.65;4.80;;;;;;;;;;5119487;27;20142;-76
2022/03/07 08:51:08;;;;;;;8.30;5.15;;;;;;;;;;5116038;27;20035;-77
2022/03/07 08:53:34;;;;;;;8.47;5.33;;;;;;;;;;5120331;27;20027;-75
2022/03/07 08:56:00;;;;;;;10.50;5.88;;;;;;;;;;5122586;27;20545;-76
2022/03/07 08:58:27;;;;;;;8.23;4.85;;;;;;;;;;5123661;27;20030;-75
2022/03/07 09:00:53;;;;;;;8.32;5.57;;;;;;;;;;5122799;27;20061;-76
2022/03/07 09:03:19;;;;;;;10.73;5.18;;;;;;;;;;5117327;28;20054;-77
2022/03/07 09:05:47;;;;;;;11.85;6.30;;;;;;;;;;5117715;28;20046;-76
2022/03/07 09:08:13;;;;;;;8.43;6.07;;;;;;;;;;5124130;28;20110;-76
2022/03/07 09:10:40;;;;;;;17.33;8.93;;;;;;;;;;5120667;28;20039;-75
2022/03/07 09:13:06;;;;;;;30.75;12.38;;;;;;;;;;5119802;28;20258;-76
2022/03/07 09:15:32;;;;;;;18.33;13.60;;;;;;;;;;5120738;28;20464;-76
2022/03/07 09:17:59;;;;;;;13.35;10.15;;;;;;;;;;5123862;28;20023;-76
2022/03/07 09:20:25;;;;;;;14.13;10.63;;;;;;;;;;5100548;28;20436;-76
2022/03/07 09:22:51;;;;;;;36.67;14.50;;;;;;;;;;5117835;28;20129;-75
2022/03/07 09:25:18;;;;;;;18.38;10.02;;;;;;;;;;5120265;28;20015;-76
2022/03/07 09:27:44;;;;;;;10.02;8.52;;;;;;;;;;5117193;28;20031;-77
2022/03/07 09:30:12;;;;;;;8.77;7.85;;;;;;;;;;5119821;28;20027;-75
2022/03/07 09:32:38;;;;;;;11.02;7.65;;;;;;;;;;5121423;28;20058;-76
2022/03/07 09:35:05;;;;;;;13.52;7.25;;;;;;;;;;5113488;28;20427;-75
2022/03/07 09:37:31;;;;;;;12.27;9.32;;;;;;;;;;5117685;28;20023;-76
2022/03/07 09:39:57;;;;;;;12.77;7.47;;;;;;;;;;5092638;28;20034;-76
2022/03/07 09:42:24;;;;;;;9.27;7.20;;;;;;;;;;5113681;28;20032;-76
2022/03/07 09:44:52;;;;;;;15.52;6.95;;;;;;;;;;5110972;28;20387;-77
2022/03/07 09:47:20;;;;;;;13.57;6.68;;;;;;;;;;5115871;28;20369;-76
2022/03/07 09:49:47;;;;;;;10.63;7.10;;;;;;;;;;5120325;28;20027;-78
2022/03/07 09:52:13;;;;;;;16.80;9.27;;;;;;;;;;5119025;28;20073;-77
2022/03/07 09:54:39;;;;;;;11.57;6.88;;;;;;;;;;5118117;28;20448;-75
2022/03/07 09:57:06;;;;;;;14.57;8.13;;;;;;;;;;5119169;27;20411;-79
2022/03/07 09:59:34;;;;;;;11.80;8.15;;;;;;;;;;5106985;27;20553;-76
2022/03/07 10:02:05;;;;;;;13.18;7.40;;;;;;;;;;5125363;27;20567;-76
2022/03/07 10:04:32;;;;;;;15.65;7.43;;;;;;;;;;5125604;27;20039;-76
2022/03/07 10:07:02;;;;;;;18.33;8.32;;;;;;;;;;5120886;27;20510;-77
2022/03/07 10:09:29;;;;;;;9.20;6.80;;;;;;;;;;5123651;27;20114;-76
2022/03/07 10:11:56;;;;;;;10.88;6.82;;;;;;;;;;5125156;27;20203;-77
2022/03/07 10:14:45;;;;;;;9.77;4.93;;;;;;;;;;5128079;27;20406;-75
2022/03/07 10:17:22;;;;;;;8.73;3.92;;;;;;;;;;5123414;27;20052;-76
2022/03/07 10:19:51;;;;;;;5.90;4.43;;;;;;;;;;5121909;27;20051;-75
2022/03/07 10:22:22;;;;;;;11.10;5.32;;;;;;;;;;5124834;27;20051;-76
2022/03/07 10:24:57;;;;;;;13.85;5.20;;;;;;;;;;5118572;27;20123;-74
2022/03/07 10:27:28;;;;;;;12.88;5.88;;;;;;;;;;5122875;27;20107;-76
2022/03/07 10:29:54;;;;;;;17.98;6.72;;;;;;;;;;5125752;27;20350;-75
2022/03/07 10:32:20;;;;;;;9.13;5.55;;;;;;;;;;5127911;27;20151;-75
2022/03/07 10:34:47;;;;;;;9.70;5.00;;;;;;;;;;5127238;27;20050;-77
2022/03/07 10:37:16;;;;;;;13.23;5.55;;;;;;;;;;5130401;27;20019;-76
2022/03/07 10:39:55;;;;;;;26.00;7.47;;;;;;;;;;5126916;27;20027;-78
2022/03/07 10:42:27;;;;;;;34.72;10.73;;;;;;;;;;5129124;27;20026;-76
2022/03/07 10:45:02;;;;;;;20.20;7.18;;;;;;;;;;5130417;27;20520;-78
2022/03/07 10:47:30;;;;;;;34.85;9.77;;;;;;;;;;5123438;27;20113;-77
2022/03/07 10:50:00;;;;;;;27.27;8.43;;;;;;;;;;5123064;27;20667;-78
2022/03/07 10:52:34;;;;;;;22.13;7.22;;;;;;;;;;5125704;27;20114;-78
2022/03/07 10:55:00;;;;;;;20.83;7.50;;;;;;;;;;5109098;27;20047;-78
2022/03/07 10:57:27;;;;;;;11.95;6.40;;;;;;;;;;5129564;27;20375;-77
2022/03/07 10:59:53;;;;;;;14.30;8.80;;;;;;;;;;5131124;27;20019;-77
2022/03/07 11:02:19;;;;;;;6.95;4.82;;;;;;;;;;5106940;27;20110;-78
2022/03/07 11:04:50;;;;;;;15.30;5.72;;;;;;;;;;5122491;27;20381;-79
2022/03/07 11:07:16;;;;;;;10.60;5.78;;;;;;;;;;5126284;27;20035;-78
2022/03/07 11:09:46;;;;;;;6.43;3.65;;;;;;;;;;5119118;27;20023;-77
2022/03/07 11:12:13;;;;;;;5.30;3.63;;;;;;;;;;5125531;27;20027;-76
2022/03/07 11:14:40;;;;;;;9.18;4.30;;;;;;;;;;5118114;27;20031;-78
2022/03/07 11:17:12;;;;;;;6.00;3.67;;;;;;;;;;5120117;27;20024;-78
2022/03/07 11:19:40;;;;;;;8.82;4.80;;;;;;;;;;5117708;27;20072;-78
2022/03/07 11:22:07;;;;;;;8.07;5.15;;;;;;;;;;5121706;27;20027;-78
2022/03/07 11:24:36;;;;;;;10.85;5.00;;;;;;;;;;5119479;27;20138;-78
2022/03/07 11:27:02;;;;;;;14.57;5.13;;;;;;;;;;5120535;27;20114;-78
2022/03/07 11:29:46;;;;;;;7.75;3.83;;;;;;;;;;5122610;27;20023;-80
2022/03/07 11:32:14;;;;;;;9.85;4.97;;;;;;;;;;5117980;27;20027;-77
2022/03/07 11:34:51;;;;;;;5.30;3.35;;;;;;;;;;5117934;27;20083;-78
2022/03/07 11:37:19;;;;;;;10.82;5.60;;;;;;;;;;5110345;27;20058;-77
2022/03/07 11:39:46;;;;;;;16.25;8.05;;;;;;;;;;5094796;27;20052;-78
2022/03/07 11:42:13;;;;;;;16.65;8.15;;;;;;;;;;5116612;27;20023;-78
2022/03/07 11:44:42;;;;;;;19.48;10.40;;;;;;;;;;5119505;27;20031;-77
2022/03/07 11:47:12;;;;;;;15.27;8.50;;;;;;;;;;5103355;27;20104;-76
2022/03/07 11:49:39;;;;;;;19.92;8.98;;;;;;;;;;5122635;27;20027;-78
2022/03/07 11:52:07;;;;;;;15.70;7.72;;;;;;;;;;5119528;27;20027;-79
2022/03/07 11:54:34;;;;;;;13.50;8.60;;;;;;;;;;5122213;27;20039;-78
2022/03/07 11:57:07;;;;;;;17.67;9.20;;;;;;;;;;5113693;27;20036;-78
2022/03/07 11:59:34;;;;;;;16.48;8.93;;;;;;;;;;5117086;27;20016;-78
2022/03/07 12:02:00;;;;;;;12.45;7.60;;;;;;;;;;5119612;27;20031;-78
2022/03/07 12:04:26;;;;;;;13.52;6.60;;;;;;;;;;5110570;27;20370;-77
2022/03/07 12:06:54;;;;;;;11.98;7.18;;;;;;;;;;5096171;27;20031;-78
2022/03/07 12:09:33;;;;;;;12.43;7.28;;;;;;;;;;5098231;27;20389;-79
2022/03/07 12:12:06;;;;;;;13.23;7.63;;;;;;;;;;5088153;28;20590;-78
2022/03/07 12:14:40;;;;;;;10.52;6.82;;;;;;;;;;5098692;27;20042;-77
2022/03/07 12:17:15;;;;;;;10.35;5.90;;;;;;;;;;5099560;27;20245;-77
2022/03/07 12:19:42;;;;;;;10.65;6.60;;;;;;;;;;5104956;27;20693;-77
2022/03/07 12:22:11;;;;;;;12.38;7.18;;;;;;;;;;5095791;28;20019;-78
2022/03/07 12:24:39;;;;;;;12.43;7.82;;;;;;;;;;5100659;27;20032;-78
2022/03/07 12:27:06;;;;;;;11.65;6.93;;;;;;;;;;5106356;27;20485;-77
2022/03/07 12:29:32;;;;;;;12.93;7.32;;;;;;;;;;5109074;27;20028;-77
2022/03/07 12:32:00;;;;;;;15.70;8.02;;;;;;;;;;5111244;27;20019;-78
2022/03/07 12:34:27;;;;;;;12.38;8.45;;;;;;;;;;5099505;27;20107;-76
2022/03/07 12:36:57;;;;;;;13.55;8.80;;;;;;;;;;5104294;27;20051;-78
2022/03/07 12:39:23;;;;;;;11.93;7.82;;;;;;;;;;5101166;27;20469;-78
2022/03/07 12:41:50;;;;;;;15.43;8.70;;;;;;;;;;5110606;27;20043;-77
2022/03/07 12:44:16;;;;;;;16.30;8.65;;;;;;;;;;5114076;27;20477;-78
2022/03/07 12:46:43;;;;;;;12.65;8.40;;;;;;;;;;5103655;27;20080;-78
2022/03/07 12:49:09;;;;;;;12.80;8.70;;;;;;;;;;5103280;28;20650;-78
2022/03/07 12:51:36;;;;;;;14.45;7.97;;;;;;;;;;5103064;27;20041;-78
2022/03/07 12:54:03;;;;;;;14.90;9.07;;;;;;;;;;5096496;28;20028;-77
2022/03/07 12:56:44;;;;;;;12.38;8.23;;;;;;;;;;5102952;28;20034;-77
2022/03/07 12:59:12;;;;;;;16.67;10.27;;;;;;;;;;5109839;28;20369;-77
2022/03/07 13:01:39;;;;;;;18.23;11.82;;;;;;;;;;5108872;28;20418;-78
2022/03/07 13:04:15;;;;;;;22.35;13.23;;;;;;;;;;5112274;28;20082;-78
2022/03/07 13:06:45;;;;;;;20.85;13.05;;;;;;;;;;5124618;28;20039;-77
2022/03/07 13:09:12;;;;;;;24.75;12.95;;;;;;;;;;5129494;28;20393;-77
2022/03/07 13:11:41;;;;;;;19.88;11.70;;;;;;;;;;5127278;28;20023;-77
2022/03/07 13:14:07;;;;;;;25.13;12.77;;;;;;;;;;5121614;28;20035;-77
2022/03/07 13:16:35;;;;;;;19.45;11.73;;;;;;;;;;5117900;28;20023;-77
2022/03/07 13:19:03;;;;;;;16.65;12.27;;;;;;;;;;5122429;28;20066;-76
2022/03/07 13:21:34;;;;;;;21.13;11.95;;;;;;;;;;5118023;28;20073;-76
2022/03/07 13:24:02;;;;;;;22.05;12.98;;;;;;;;;;5112800;28;20146;-78
2022/03/07 13:26:28;;;;;;;21.65;13.25;;;;;;;;;;5119776;28;20053;-78
2022/03/07 13:29:05;;;;;;;18.70;13.18;;;;;;;;;;5121175;28;20102;-77
2022/03/07 13:31:44;;;;;;;22.27;13.93;;;;;;;;;;5129960;27;20023;-77
2022/03/07 13:34:11;;;;;;;21.70;15.82;;;;;;;;;;5120804;27;20067;-78
2022/03/07 13:36:46;;;;;;;18.85;14.13;;;;;;;;;;5125818;27;20059;-78
2022/03/07 13:39:19;;;;;;;21.80;13.77;;;;;;;;;;5125441;27;20357;-77
2022/03/07 13:41:54;;;;;;;20.90;13.85;;;;;;;;;;5120692;27;20026;-75
2022/03/07 13:44:21;;;;;;;20.33;13.63;;;;;;;;;;5126886;27;20465;-75
2022/03/07 13:46:54;;;;;;;22.75;15.05;;;;;;;;;;5127421;27;20401;-75
2022/03/07 13:49:23;;;;;;;25.35;15.20;;;;;;;;;;5124965;27;20084;-76
2022/03/07 13:51:50;;;;;;;21.63;15.60;;;;;;;;;;5118176;27;20053;-76
2022/03/07 13:54:16;;;;;;;23.30;16.42;;;;;;;;;;5121600;27;20034;-75
2022/03/07 13:56:43;;;;;;;24.27;17.08;;;;;;;;;;5124644;27;20106;-75
2022/03/07 13:59:15;;;;;;;26.52;17.48;;;;;;;;;;5125088;27;20024;-76
2022/03/07 14:01:42;;;;;;;24.88;16.35;;;;;;;;;;5124023;27;20492;-76
2022/03/07 14:04:12;;;;;;;28.48;15.43;;;;;;;;;;5131700;27;20083;-75
2022/03/07 14:06:38;;;;;;;24.85;18.10;;;;;;;;;;5125832;27;20123;-76
2022/03/07 14:09:09;;;;;;;23.88;17.40;;;;;;;;;;5124522;27;20027;-76
2022/03/07 14:11:35;;;;;;;26.63;18.20;;;;;;;;;;5120560;27;20035;-76
2022/03/07 14:14:02;;;;;;;24.77;18.08;;;;;;;;;;5115827;27;20031;-75
2022/03/07 14:16:38;;;;;;;28.05;18.73;;;;;;;;;;5119560;27;20029;-76
2022/03/07 14:19:04;;;;;;;31.65;19.25;;;;;;;;;;5127545;27;20059;-76
2022/03/07 14:21:32;;;;;;;36.03;19.75;;;;;;;;;;5133976;27;20024;-76
2022/03/07 14:24:02;;;;;;;26.77;20.38;;;;;;;;;;5110338;27;20027;-76
2022/03/07 14:26:28;;;;;;;28.65;21.02;;;;;;;;;;5133390;27;20027;-76